createdAt,value
2023-04-01T00:01:06.900Z,97600.69
2023-04-01T00:03:42.928Z,97607.59
2023-04-01T00:06:18.936Z,97610.25
2023-04-01T00:08:51.017Z,97606.78
2023-04-01T00:11:23.235Z,97609.66
2023-04-01T00:13:55.640Z,97610.84
2023-04-01T00:16:27.414Z,97599.66
2023-04-01T00:18:59.193Z,97604.53
2023-04-01T00:21:31.210Z,97594.19
2023-04-01T00:24:03.213Z,97599.25
2023-04-01T00:26:35.001Z,97606.38
2023-04-01T00:29:06.969Z,97609.00
2023-04-01T00:31:42.680Z,97599.88
2023-04-01T00:34:14.833Z,97600.91
2023-04-01T00:36:46.572Z,97597.03
2023-04-01T00:39:18.349Z,97598.84
2023-04-01T00:41:50.288Z,97597.66
2023-04-01T00:44:31.228Z,97590.56
2023-04-01T00:47:03.053Z,97598.06
2023-04-01T00:49:38.792Z,97591.19
2023-04-01T00:52:13.754Z,97598.50
2023-04-01T00:54:48.684Z,97605.00
2023-04-01T00:57:30.803Z,97601.56
2023-04-01T01:00:04.530Z,97585.13
2023-04-01T01:02:36.785Z,97588.75
2023-04-01T01:05:15.068Z,97598.94
2023-04-01T01:08:08.648Z,97595.06
2023-04-01T01:10:41.112Z,97594.69
2023-04-01T01:13:21.872Z,97596.50
2023-04-01T01:16:11.594Z,97596.72
2023-04-01T01:18:54.856Z,97596.94
2023-04-01T01:21:43.756Z,97597.94
2023-04-01T01:24:38.646Z,97596.31
2023-04-01T01:27:12.882Z,97593.28
2023-04-01T01:30:17.811Z,97599.59
2023-04-01T01:33:11.000Z,97587.81
2023-04-01T01:35:57.797Z,97593.09
2023-04-01T01:38:34.826Z,97593.09
2023-04-01T01:41:12.199Z,97593.09
2023-04-01T01:43:49.886Z,97597.16
2023-04-01T01:46:26.483Z,97587.22
2023-04-01T01:49:00.371Z,97594.31
2023-04-01T01:51:32.219Z,97591.88
2023-04-01T01:54:06.574Z,97582.13
2023-04-01T01:56:39.883Z,97581.94
2023-04-01T01:59:13.735Z,97586.59
2023-04-01T02:01:50.413Z,97582.72
2023-04-01T02:04:24.700Z,97585.78
2023-04-01T02:07:05.436Z,97582.53
2023-04-01T02:09:37.658Z,97584.78
2023-04-01T02:12:13.924Z,97586.00
2023-04-01T02:14:52.009Z,97586.41
2023-04-01T02:17:27.741Z,97587.00
2023-04-01T02:20:14.633Z,97594.53
2023-04-01T02:22:50.908Z,97589.06
2023-04-01T02:25:30.880Z,97589.88
2023-04-01T02:28:05.740Z,97594.34
2023-04-01T02:30:41.129Z,97602.66
2023-04-01T02:33:13.336Z,97602.47
2023-04-01T02:35:45.366Z,97603.28
2023-04-01T02:38:17.314Z,97601.66
2023-04-01T02:40:51.858Z,97613.00
2023-04-01T02:43:24.190Z,97614.44
2023-04-01T02:45:59.063Z,97622.34
2023-04-01T02:48:31.206Z,97621.34
2023-04-01T02:51:02.938Z,97624.78
2023-04-01T02:53:37.670Z,97628.84
2023-04-01T02:56:09.362Z,97618.09
2023-04-01T02:58:41.259Z,97628.25
2023-04-01T03:01:13.107Z,97628.44
2023-04-01T03:03:44.796Z,97629.84
2023-04-01T03:06:18.242Z,97627.63
2023-04-01T03:08:50.565Z,97631.28
2023-04-01T03:11:22.307Z,97638.75
2023-04-01T03:13:55.185Z,97635.91
2023-04-01T03:16:27.054Z,97631.88
2023-04-01T03:19:00.726Z,97637.16
2023-04-01T03:21:32.957Z,97637.97
2023-04-01T03:24:07.190Z,97636.94
2023-04-01T03:26:39.007Z,97641.63
2023-04-01T03:29:11.461Z,97641.38
2023-04-01T03:31:46.886Z,97645.66
2023-04-01T03:34:18.635Z,97647.28
2023-04-01T03:36:50.371Z,97643.22
2023-04-01T03:39:24.688Z,97647.28
2023-04-01T03:41:59.873Z,97649.72
2023-04-01T03:44:33.265Z,97648.09
2023-04-01T03:47:06.862Z,97650.53
2023-04-01T03:49:38.705Z,97648.47
2023-04-01T03:52:11.863Z,97653.78
2023-04-01T03:54:43.640Z,97657.00
2023-04-01T03:57:16.133Z,97656.00
2023-04-01T03:59:51.198Z,97660.47
2023-04-01T04:02:23.080Z,97659.84
2023-04-01T04:04:54.967Z,97659.84
2023-04-01T04:07:27.091Z,97662.47
2023-04-01T04:10:12.550Z,97669.00
2023-04-01T04:12:44.352Z,97664.72
2023-04-01T04:15:16.791Z,97677.72
2023-04-01T04:17:49.315Z,97680.75
2023-04-01T04:20:21.326Z,97674.25
2023-04-01T04:22:53.759Z,97681.75
2023-04-01T04:25:25.587Z,97683.16
2023-04-01T04:27:57.479Z,97678.28
2023-04-01T04:30:29.383Z,97679.09
2023-04-01T04:33:01.185Z,97683.16
2023-04-01T04:35:34.050Z,97680.72
2023-04-01T04:38:06.190Z,97689.66
2023-04-01T04:40:44.606Z,97690.47
2023-04-01T04:43:19.622Z,97685.38
2023-04-01T04:45:52.454Z,97685.00
2023-04-01T04:48:24.338Z,97687.00
2023-04-01T04:50:56.329Z,97682.56
2023-04-01T04:53:31.738Z,97682.56
2023-04-01T04:56:03.558Z,97678.72
2023-04-01T04:58:49.346Z,97680.94
2023-04-01T05:01:26.308Z,97681.94
2023-04-01T05:03:58.498Z,97684.38
2023-04-01T05:06:32.977Z,97686.00
2023-04-01T05:09:04.761Z,97702.03
2023-04-01T05:11:36.529Z,97696.13
2023-04-01T05:14:14.221Z,97697.75
2023-04-01T05:16:46.772Z,97703.84
2023-04-01T05:19:18.667Z,97693.72
2023-04-01T05:21:51.009Z,97693.13
2023-04-01T05:24:22.765Z,97702.03
2023-04-01T05:26:59.717Z,97698.59
2023-04-01T05:29:32.359Z,97699.00
2023-04-01T05:32:10.031Z,97701.03
2023-04-01T05:34:41.877Z,97701.63
2023-04-01T05:37:14.167Z,97701.63
2023-04-01T05:39:46.036Z,97703.44
2023-04-01T05:42:18.022Z,97703.41
2023-04-01T05:44:49.852Z,97707.13
2023-04-01T05:47:56.928Z,97714.22
2023-04-01T05:50:28.850Z,97707.69
2023-04-01T05:53:00.648Z,97707.06
2023-04-01T05:55:32.768Z,97710.09
2023-04-01T05:58:04.806Z,97710.03
2023-04-01T06:00:37.242Z,97714.25
2023-04-01T06:03:09.473Z,97711.59
2023-04-01T06:05:46.667Z,97710.59
2023-04-01T06:08:20.567Z,97714.03
2023-04-01T06:11:00.755Z,97716.88
2023-04-01T06:13:47.666Z,97712.22
2023-04-01T06:16:28.406Z,97715.47
2023-04-01T06:19:09.318Z,97726.84
2023-04-01T06:21:46.212Z,97724.22
2023-04-01T06:24:44.765Z,97715.28
2023-04-01T06:27:51.272Z,97724.75
2023-04-01T06:30:23.058Z,97721.31
2023-04-01T06:33:04.075Z,97728.03
2023-04-01T06:35:55.160Z,97733.81
2023-04-01T06:39:06.566Z,97720.16
2023-04-01T06:42:00.887Z,97724.75
2023-04-01T06:45:04.548Z,97732.84
2023-04-01T06:48:24.672Z,97724.56
2023-04-01T06:51:29.808Z,97738.78
2023-04-01T06:54:25.606Z,97738.56
2023-04-01T06:57:29.716Z,97739.53
2023-04-01T07:00:13.198Z,97734.69
2023-04-01T07:03:06.203Z,97731.81
2023-04-01T07:05:40.257Z,97732.59
2023-04-01T07:08:21.388Z,97730.59
2023-04-01T07:10:59.603Z,97729.16
2023-04-01T07:14:01.305Z,97732.97
2023-04-01T07:16:46.552Z,97727.31
2023-04-01T07:19:58.077Z,97739.28
2023-04-01T07:22:33.550Z,97734.53
2023-04-01T07:25:46.675Z,97739.97
2023-04-01T07:28:39.857Z,97734.09
2023-04-01T07:31:43.970Z,97737.06
2023-04-01T07:34:28.129Z,97733.25
2023-04-01T07:37:23.309Z,97741.84
2023-04-01T07:40:14.581Z,97743.91
2023-04-01T07:43:04.601Z,97744.72
2023-04-01T07:45:56.330Z,97744.84
2023-04-01T07:48:52.792Z,97753.81
2023-04-01T07:51:43.575Z,97760.50
2023-04-01T07:54:23.581Z,97757.97
2023-04-01T07:57:36.408Z,97754.69
2023-04-01T08:00:46.548Z,97769.94
2023-04-01T08:04:00.676Z,97762.94
2023-04-01T08:06:58.413Z,97773.75
2023-04-01T08:09:48.992Z,97784.34
2023-04-01T08:12:54.544Z,97782.34
2023-04-01T08:16:12.282Z,97778.13
2023-04-01T08:19:06.146Z,97787.09
2023-04-01T08:21:45.966Z,97779.75
2023-04-01T08:24:31.752Z,97787.09
2023-04-01T08:27:22.727Z,97773.16
2023-04-01T08:30:03.078Z,97779.56
2023-04-01T08:32:40.685Z,97770.88
2023-04-01T08:35:37.620Z,97767.66
2023-04-01T08:38:24.753Z,97769.19
2023-04-01T08:40:59.956Z,97765.78
2023-04-01T08:43:52.770Z,97770.44
2023-04-01T08:46:36.301Z,97770.72
2023-04-01T08:49:38.582Z,97772.56
2023-04-01T08:52:36.169Z,97768.00
2023-04-01T08:55:47.025Z,97769.31
2023-04-01T08:58:51.255Z,97771.53
2023-04-01T09:01:55.896Z,97778.47
2023-04-01T09:05:03.645Z,97776.09
2023-04-01T09:07:36.128Z,97771.63
2023-04-01T09:10:22.562Z,97771.16
2023-04-01T09:13:32.208Z,97775.75
2023-04-01T09:16:13.271Z,97775.34
2023-04-01T09:19:10.040Z,97776.38
2023-04-01T09:22:07.136Z,97777.78
2023-04-01T09:24:45.466Z,97780.66
2023-04-01T09:27:26.317Z,97780.66
2023-04-01T09:30:20.131Z,97776.84
2023-04-01T09:33:00.855Z,97773.59
2023-04-01T09:35:48.482Z,97772.22
2023-04-01T09:38:22.878Z,97782.69
2023-04-01T09:41:01.949Z,97775.06
2023-04-01T09:44:04.772Z,97780.31
2023-04-01T09:47:21.761Z,97775.00
2023-04-01T09:50:12.104Z,97786.13
2023-04-01T09:52:54.329Z,97785.47
2023-04-01T09:55:34.343Z,97779.56
2023-04-01T09:58:43.847Z,97781.53
2023-04-01T10:01:47.344Z,97788.97
2023-04-01T10:04:25.606Z,97786.22
2023-04-01T10:07:33.818Z,97785.19
2023-04-01T10:10:46.780Z,97778.50
2023-04-01T10:14:04.096Z,97783.22
2023-04-01T10:16:54.050Z,97791.13
2023-04-01T10:19:57.504Z,97794.44
2023-04-01T10:22:55.602Z,97790.66
2023-04-01T10:25:55.753Z,97783.31
2023-04-01T10:28:56.431Z,97784.84
2023-04-01T10:32:03.432Z,97783.03
2023-04-01T10:34:56.230Z,97787.34
2023-04-01T10:37:42.372Z,97787.72
2023-04-01T10:40:32.476Z,97776.53
2023-04-01T10:43:41.184Z,97783.16
2023-04-01T10:46:22.153Z,97786.66
2023-04-01T10:49:12.453Z,97775.25
2023-04-01T10:52:22.683Z,97782.41
2023-04-01T10:56:10.367Z,97778.47
2023-04-01T10:59:09.413Z,97779.63
2023-04-01T11:02:42.411Z,97781.47
2023-04-01T11:05:50.570Z,97787.69
2023-04-01T11:08:53.561Z,97781.69
2023-04-01T11:11:40.632Z,97786.88
2023-04-01T11:14:34.667Z,97788.47
2023-04-01T11:17:15.537Z,97787.75
2023-04-01T11:20:22.687Z,97780.47
2023-04-01T11:23:09.830Z,97776.53
2023-04-01T11:25:56.447Z,97781.31
2023-04-01T11:29:38.840Z,97778.78
2023-04-01T11:32:52.242Z,97774.19
2023-04-01T11:35:30.129Z,97785.53
2023-04-01T11:38:05.101Z,97772.56
2023-04-01T11:41:12.016Z,97780.41
2023-04-01T11:44:28.146Z,97780.28
2023-04-01T11:47:34.185Z,97772.06
2023-04-01T11:50:12.290Z,97778.81
2023-04-01T11:52:52.137Z,97782.84
2023-04-01T11:55:33.213Z,97780.50
2023-04-01T11:58:18.348Z,97782.88
2023-04-01T12:01:05.482Z,97773.28
2023-04-01T12:03:43.303Z,97783.13
2023-04-01T12:06:33.945Z,97791.03
2023-04-01T12:09:20.147Z,97784.78
2023-04-01T12:12:06.437Z,97790.78
2023-04-01T12:15:02.757Z,97788.56
2023-04-01T12:17:46.950Z,97788.34
2023-04-01T12:20:33.486Z,97796.84
2023-04-01T12:23:05.523Z,97788.53
2023-04-01T12:26:11.269Z,97800.22
2023-04-01T12:29:01.605Z,97791.81
2023-04-01T12:31:58.076Z,97796.47
2023-04-01T12:34:59.370Z,97789.00
2023-04-01T12:37:50.789Z,97798.09
2023-04-01T12:40:47.174Z,97796.16
2023-04-01T12:43:40.766Z,97799.84
2023-04-01T12:46:21.470Z,97792.47
2023-04-01T12:48:56.065Z,97783.81
2023-04-01T12:51:46.225Z,97791.03
2023-04-01T12:54:27.267Z,97786.03
2023-04-01T12:57:04.546Z,97791.50
2023-04-01T13:00:09.443Z,97784.69
2023-04-01T13:03:06.216Z,97783.66
2023-04-01T13:06:04.432Z,97789.63
2023-04-01T13:08:49.287Z,97793.00
2023-04-01T13:11:55.076Z,97791.03
2023-04-01T13:14:32.160Z,97792.34
2023-04-01T13:17:24.139Z,97796.72
2023-04-01T13:20:34.165Z,97794.06
2023-04-01T13:23:25.849Z,97795.97
2023-04-01T13:26:14.746Z,97793.63
2023-04-01T13:29:13.669Z,97794.06
2023-04-01T13:32:10.372Z,97794.38
2023-04-01T13:35:23.074Z,97803.34
2023-04-01T13:38:16.112Z,97793.00
2023-04-01T13:41:14.978Z,97791.13
2023-04-01T13:43:52.854Z,97790.19
2023-04-01T13:46:51.234Z,97790.69
2023-04-01T13:49:34.896Z,97789.78
2023-04-01T13:52:06.668Z,97796.38
2023-04-01T13:55:16.944Z,97796.28
2023-04-01T13:58:30.257Z,97797.41
2023-04-01T14:01:25.148Z,97795.31
2023-04-01T14:04:18.244Z,97788.47
2023-04-01T14:06:58.967Z,97794.38
2023-04-01T14:10:06.705Z,97785.69
2023-04-01T14:13:06.659Z,97791.66
2023-04-01T14:16:14.355Z,97791.31
2023-04-01T14:19:07.871Z,97792.72
2023-04-01T14:21:49.900Z,97779.50
2023-04-01T14:24:29.884Z,97791.16
2023-04-01T14:27:26.057Z,97807.97
2023-04-01T14:30:31.883Z,97799.28
2023-04-01T14:33:41.215Z,97799.78
2023-04-01T14:36:31.998Z,97807.13
2023-04-01T14:39:15.852Z,97801.84
2023-04-01T14:42:11.899Z,97810.75
2023-04-01T14:45:08.716Z,97809.94
2023-04-01T14:47:57.308Z,97814.34
2023-04-01T14:50:40.953Z,97818.06
2023-04-01T14:53:27.205Z,97813.00
2023-04-01T14:56:01.162Z,97815.06
2023-04-01T14:58:58.534Z,97813.22
2023-04-01T15:01:45.832Z,97812.31
2023-04-01T15:04:48.198Z,97820.28
2023-04-01T15:07:46.056Z,97825.25
2023-04-01T15:10:20.885Z,97816.72
2023-04-01T15:12:58.060Z,97825.84
2023-04-01T15:15:59.104Z,97829.31
2023-04-01T15:18:35.896Z,97827.78
2023-04-01T15:21:26.916Z,97832.50
2023-04-01T15:24:11.476Z,97825.56
2023-04-01T15:26:45.906Z,97825.78
2023-04-01T15:29:49.946Z,97832.25
2023-04-01T15:32:48.191Z,97839.97
2023-04-01T15:35:48.571Z,97846.81
2023-04-01T15:38:35.986Z,97842.63
2023-04-01T15:41:36.953Z,97839.06
2023-04-01T15:44:43.321Z,97846.19
2023-04-01T15:47:27.277Z,97849.75
2023-04-01T15:50:22.494Z,97851.03
2023-04-01T15:52:57.145Z,97848.09
2023-04-01T15:55:47.144Z,97855.63
2023-04-01T15:58:29.940Z,97858.47
2023-04-01T16:01:30.013Z,97862.03
2023-04-01T16:04:24.086Z,97859.63
2023-04-01T16:07:29.706Z,97855.69
2023-04-01T16:10:18.757Z,97857.53
2023-04-01T16:12:59.656Z,97855.56
2023-04-01T16:15:56.306Z,97857.19
2023-04-01T16:18:52.635Z,97862.84
2023-04-01T16:22:06.482Z,97867.00
2023-04-01T16:24:47.677Z,97871.63
2023-04-01T16:27:30.316Z,97862.84
2023-04-01T16:30:18.545Z,97869.19
2023-04-01T16:33:01.615Z,97877.75
2023-04-01T16:36:09.481Z,97876.44
2023-04-01T16:39:21.106Z,97878.06
2023-04-01T16:42:08.035Z,97885.88
2023-04-01T16:45:01.191Z,97890.38
2023-04-01T16:47:41.841Z,97895.69
2023-04-01T16:50:24.511Z,97894.94
2023-04-01T16:53:21.085Z,97907.41
2023-04-01T16:55:53.926Z,97906.09
2023-04-01T16:58:56.594Z,97905.88
2023-04-01T17:01:34.416Z,97919.56
2023-04-01T17:04:19.548Z,97929.69
2023-04-01T17:07:02.333Z,97924.47
2023-04-01T17:10:01.736Z,97929.09
2023-04-01T17:12:39.472Z,97930.84
2023-04-01T17:15:39.444Z,97937.78
2023-04-01T17:18:30.834Z,97940.28
2023-04-01T17:21:02.491Z,97944.06
2023-04-01T17:23:46.711Z,97942.53
2023-04-01T17:26:41.600Z,97941.31
2023-04-01T17:29:23.987Z,97950.56
2023-04-01T17:32:25.070Z,97954.41
2023-04-01T17:35:27.350Z,97951.22
2023-04-01T17:38:19.424Z,97957.97
2023-04-01T17:41:02.243Z,97961.63
2023-04-01T17:43:33.898Z,97967.97
2023-04-01T17:46:48.900Z,97964.13
2023-04-01T17:49:51.190Z,97967.22
2023-04-01T17:52:38.953Z,97975.81
2023-04-01T17:55:42.225Z,97977.03
2023-04-01T17:58:29.562Z,97977.69
2023-04-01T18:01:19.908Z,97983.38
2023-04-01T18:03:57.867Z,97982.81
2023-04-01T18:06:43.583Z,97984.63
2023-04-01T18:09:53.689Z,97983.63
2023-04-01T18:12:46.833Z,97994.41
2023-04-01T18:15:46.696Z,98000.94
2023-04-01T18:18:35.931Z,98002.16
2023-04-01T18:21:23.591Z,98009.28
2023-04-01T18:24:02.231Z,98006.41
2023-04-01T18:26:38.133Z,98016.59
2023-04-01T18:29:27.424Z,98015.59
2023-04-01T18:32:16.769Z,98025.75
2023-04-01T18:34:59.286Z,98026.78
2023-04-01T18:38:01.527Z,98023.56
2023-04-01T18:41:03.895Z,98028.69
2023-04-01T18:44:01.419Z,98036.22
2023-04-01T18:47:12.116Z,98031.38
2023-04-01T18:50:05.389Z,98042.16
2023-04-01T18:52:45.011Z,98048.91
2023-04-01T18:55:47.595Z,98053.19
2023-04-01T18:58:49.418Z,98055.06
2023-04-01T19:02:08.246Z,98057.31
2023-04-01T19:05:01.504Z,98051.56
2023-04-01T19:07:53.785Z,98060.34
2023-04-01T19:10:34.903Z,98064.00
2023-04-01T19:13:18.462Z,98063.19
2023-04-01T19:16:02.314Z,98072.38
2023-04-01T19:19:11.749Z,98064.63
2023-04-01T19:21:54.343Z,98065.88
2023-04-01T19:25:16.533Z,98068.91
2023-04-01T19:27:52.845Z,98064.88
2023-04-01T19:30:33.426Z,98067.13
2023-04-01T19:33:22.399Z,98066.13
2023-04-01T19:36:17.539Z,98071.00
2023-04-01T19:38:49.265Z,98076.69
2023-04-01T19:41:58.346Z,98076.06
2023-04-01T19:44:39.117Z,98077.31
2023-04-01T19:48:14.962Z,98077.31
2023-04-01T19:50:53.870Z,98084.81
2023-04-01T19:53:51.585Z,98084.00
2023-04-01T19:56:26.542Z,98084.22
2023-04-01T19:59:33.832Z,98091.91
2023-04-01T20:02:08.367Z,98091.13
2023-04-01T20:04:45.718Z,98092.13
2023-04-01T20:07:28.383Z,98094.34
2023-04-01T20:10:15.278Z,98095.34
2023-04-01T20:13:05.175Z,98099.44
2023-04-01T20:15:38.859Z,98100.44
2023-04-01T20:18:49.859Z,98099.63
2023-04-01T20:21:41.774Z,98092.53
2023-04-01T20:24:29.338Z,98101.69
2023-04-01T20:27:11.312Z,98108.78
2023-04-01T20:30:01.828Z,98112.44
2023-04-01T20:32:51.924Z,98110.78
2023-04-01T20:35:45.683Z,98110.19
2023-04-01T20:38:49.740Z,98109.38
2023-04-01T20:41:24.530Z,98118.50
2023-04-01T20:45:05.635Z,98121.97
2023-04-01T20:47:59.186Z,98118.50
2023-04-01T20:50:48.669Z,98117.28
2023-04-01T20:53:38.212Z,98119.94
2023-04-01T20:56:15.933Z,98117.88
2023-04-01T20:58:47.650Z,98125.81
2023-04-01T21:01:48.035Z,98120.94
2023-04-01T21:04:24.567Z,98126.03
2023-04-01T21:07:01.106Z,98120.34
2023-04-01T21:09:45.204Z,98124.41
2023-04-01T21:12:40.701Z,98125.19
2023-04-01T21:15:33.628Z,98130.25
2023-04-01T21:18:43.072Z,98133.28
2023-04-01T21:21:36.883Z,98134.28
2023-04-01T21:24:14.738Z,98132.03
2023-04-01T21:27:17.976Z,98151.13
2023-04-01T21:30:05.883Z,98150.50
2023-04-01T21:32:44.747Z,98143.97
2023-04-01T21:35:38.291Z,98155.56
2023-04-01T21:39:15.012Z,98156.81
2023-04-01T21:42:11.667Z,98154.97
2023-04-01T21:44:43.481Z,98159.03
2023-04-01T21:47:40.609Z,98152.53
2023-04-01T21:50:29.162Z,98152.94
2023-04-01T21:53:45.684Z,98158.41
2023-04-01T21:56:34.008Z,98158.84
2023-04-01T21:59:30.588Z,98160.06
2023-04-01T22:02:11.633Z,98159.63
2023-04-01T22:05:07.482Z,98154.34
2023-04-01T22:07:52.402Z,98157.00
2023-04-01T22:10:48.067Z,98163.50
2023-04-01T22:13:34.938Z,98170.19
2023-04-01T22:16:23.057Z,98170.19
2023-04-01T22:19:06.985Z,98175.06
2023-04-01T22:22:02.653Z,98180.16
2023-04-01T22:24:59.293Z,98172.44
2023-04-01T22:27:53.913Z,98171.63
2023-04-01T22:30:34.791Z,98171.81
2023-04-01T22:33:11.765Z,98178.13
2023-04-01T22:36:04.047Z,98189.91
2023-04-01T22:39:00.591Z,98184.63
2023-04-01T22:42:11.306Z,98179.16
2023-04-01T22:45:04.659Z,98177.72
2023-04-01T22:48:04.113Z,98186.28
2023-04-01T22:51:14.705Z,98184.84
2023-04-01T22:54:17.426Z,98188.28
2023-04-01T22:56:54.426Z,98179.75
2023-04-01T22:59:59.901Z,98184.63
2023-04-01T23:02:38.208Z,98193.34
2023-04-01T23:05:18.274Z,98197.22
2023-04-01T23:08:01.824Z,98190.13
2023-04-01T23:10:56.603Z,98197.22
2023-04-01T23:13:42.678Z,98198.81
2023-04-01T23:16:15.560Z,98199.22
2023-04-01T23:18:53.107Z,98204.31
2023-04-01T23:21:33.642Z,98202.31
2023-04-01T23:24:22.736Z,98204.75
2023-04-01T23:27:12.676Z,98211.44
2023-04-01T23:29:44.454Z,98210.22
2023-04-01T23:32:19.315Z,98209.19
2023-04-01T23:34:53.423Z,98209.38
2023-04-01T23:37:26.421Z,98217.94
2023-04-01T23:39:59.621Z,98221.16
2023-04-01T23:42:41.671Z,98226.25
2023-04-01T23:45:23.257Z,98226.44
2023-04-01T23:47:55.339Z,98224.81
2023-04-01T23:50:28.244Z,98228.88
2023-04-01T23:53:04.373Z,98226.84
2023-04-01T23:55:36.624Z,98232.75
2023-04-01T23:58:22.084Z,98234.19
